createdAt,value
2023-02-22T00:01:34.496Z,99.90
2023-02-22T00:04:03.686Z,99.90
2023-02-22T00:06:31.073Z,99.90
2023-02-22T00:08:58.892Z,99.90
2023-02-22T00:11:26.377Z,99.90
2023-02-22T00:13:57.233Z,99.90
2023-02-22T00:16:26.185Z,99.90
2023-02-22T00:18:53.864Z,99.90
2023-02-22T00:21:21.072Z,99.90
2023-02-22T00:23:48.940Z,99.90
2023-02-22T00:26:18.872Z,99.90
2023-02-22T00:28:48.116Z,99.90
2023-02-22T00:31:15.770Z,99.90
2023-02-22T00:33:43.281Z,99.90
2023-02-22T00:36:11.838Z,99.90
2023-02-22T00:38:39.872Z,99.90
2023-02-22T00:41:07.205Z,99.90
2023-02-22T00:43:34.558Z,99.90
2023-02-22T00:46:01.512Z,99.90
2023-02-22T00:48:28.466Z,99.90
2023-02-22T00:50:55.451Z,99.90
2023-02-22T00:53:26.445Z,99.90
2023-02-22T00:55:53.818Z,99.90
2023-02-22T00:58:21.588Z,99.90
2023-02-22T01:00:48.751Z,99.90
2023-02-22T01:03:18.840Z,99.90
2023-02-22T01:05:46.611Z,99.90
2023-02-22T01:08:16.180Z,99.90
2023-02-22T01:10:43.002Z,99.90
2023-02-22T01:13:12.221Z,99.90
2023-02-22T01:15:42.073Z,99.90
2023-02-22T01:18:08.994Z,99.90
2023-02-22T01:20:36.089Z,99.90
2023-02-22T01:23:06.505Z,99.90
2023-02-22T01:25:33.906Z,99.90
2023-02-22T01:28:01.616Z,99.90
2023-02-22T01:30:31.077Z,99.90
2023-02-22T01:32:58.637Z,99.90
2023-02-22T01:35:31.850Z,99.90
2023-02-22T01:37:59.129Z,99.90
2023-02-22T01:40:29.688Z,99.90
2023-02-22T01:42:59.793Z,99.90
2023-02-22T01:45:35.276Z,99.90
2023-02-22T01:48:24.832Z,99.90
2023-02-22T01:51:32.501Z,99.90
2023-02-22T01:54:07.581Z,99.90
2023-02-22T01:56:38.531Z,99.90
2023-02-22T01:59:09.629Z,99.90
2023-02-22T02:01:39.439Z,99.90
2023-02-22T02:04:10.753Z,99.90
2023-02-22T02:06:38.625Z,99.90
2023-02-22T02:09:21.201Z,99.90
2023-02-22T02:11:49.611Z,99.90
2023-02-22T02:14:17.419Z,99.90
2023-02-22T02:16:47.726Z,99.90
2023-02-22T02:19:36.152Z,99.90
2023-02-22T02:22:30.110Z,99.90
2023-02-22T02:25:17.373Z,99.90
2023-02-22T02:28:11.583Z,99.90
2023-02-22T02:31:02.747Z,99.90
2023-02-22T02:33:34.148Z,99.90
2023-02-22T02:36:09.538Z,99.90
2023-02-22T02:38:43.612Z,99.90
2023-02-22T02:41:29.864Z,99.90
2023-02-22T02:44:05.991Z,99.90
2023-02-22T02:46:46.869Z,99.90
2023-02-22T02:49:22.194Z,99.90
2023-02-22T02:51:52.298Z,99.90
2023-02-22T02:54:23.354Z,99.90
2023-02-22T02:56:51.089Z,99.90
2023-02-22T02:59:29.795Z,99.90
2023-02-22T03:02:34.579Z,99.90
2023-02-22T03:05:15.996Z,99.90
2023-02-22T03:08:01.156Z,99.90
2023-02-22T03:10:46.104Z,99.90
2023-02-22T03:13:40.539Z,99.90
2023-02-22T03:16:38.238Z,99.90
2023-02-22T03:19:20.234Z,99.90
2023-02-22T03:21:55.894Z,99.90
2023-02-22T03:24:55.594Z,99.90
2023-02-22T03:27:25.136Z,99.90
2023-02-22T03:29:55.669Z,99.90
2023-02-22T03:32:26.030Z,99.90
2023-02-22T03:34:59.424Z,99.90
2023-02-22T03:37:30.430Z,99.90
2023-02-22T03:40:00.834Z,99.90
2023-02-22T03:42:34.752Z,99.90
2023-02-22T03:45:05.087Z,99.90
2023-02-22T03:47:40.107Z,99.90
2023-02-22T03:50:26.455Z,99.90
2023-02-22T03:52:53.728Z,99.90
2023-02-22T03:55:23.721Z,99.90
2023-02-22T03:57:54.947Z,99.90
2023-02-22T04:00:25.454Z,99.90
2023-02-22T04:02:52.463Z,99.90
2023-02-22T04:05:19.756Z,99.90
2023-02-22T04:07:46.564Z,99.90
2023-02-22T04:10:15.464Z,99.90
2023-02-22T04:12:42.248Z,99.90
2023-02-22T04:15:11.788Z,99.90
2023-02-22T04:20:07.223Z,99.90
2023-02-22T04:22:33.983Z,99.90
2023-02-22T04:25:00.687Z,99.90
2023-02-22T04:27:27.425Z,99.90
2023-02-22T04:29:54.201Z,99.90
2023-02-22T04:32:20.938Z,99.90
2023-02-22T04:34:47.730Z,99.90
2023-02-22T04:37:14.470Z,99.90
2023-02-22T04:39:41.283Z,99.90
2023-02-22T04:42:08.010Z,99.90
2023-02-22T04:44:34.700Z,99.90
2023-02-22T04:47:01.458Z,99.90
2023-02-22T04:49:28.205Z,99.90
2023-02-22T04:51:56.878Z,99.90
2023-02-22T04:54:23.678Z,99.90
2023-02-22T04:56:50.434Z,99.90
2023-02-22T04:59:17.281Z,99.90
2023-02-22T05:04:11.481Z,99.90
2023-02-22T05:06:38.197Z,99.90
2023-02-22T05:09:05.935Z,99.90
2023-02-22T05:11:32.636Z,99.90
2023-02-22T05:13:59.354Z,99.90
2023-02-22T05:16:26.555Z,99.90
2023-02-22T05:18:53.202Z,99.90
2023-02-22T05:21:19.940Z,99.90
2023-02-22T05:23:46.655Z,99.90
2023-02-22T05:26:13.448Z,99.90
2023-02-22T05:28:40.232Z,99.90
2023-02-22T05:31:07.531Z,99.90
2023-02-22T05:33:34.506Z,99.90
2023-02-22T05:36:01.318Z,99.90
2023-02-22T05:38:28.502Z,99.90
2023-02-22T05:40:55.305Z,99.90
2023-02-22T05:43:21.990Z,99.90
2023-02-22T05:45:48.790Z,99.90
2023-02-22T05:48:15.571Z,99.90
2023-02-22T05:50:42.351Z,99.90
2023-02-22T05:53:09.117Z,99.90
2023-02-22T05:55:35.894Z,99.90
2023-02-22T05:58:05.750Z,99.90
2023-02-22T06:00:33.071Z,99.90
2023-02-22T06:03:05.746Z,99.90
2023-02-22T06:05:32.776Z,99.90
2023-02-22T06:07:59.782Z,99.90
2023-02-22T06:10:27.925Z,99.90
2023-02-22T06:12:55.477Z,99.90
2023-02-22T06:15:23.817Z,99.90
2023-02-22T06:17:51.718Z,99.90
2023-02-22T06:20:20.953Z,99.90
2023-02-22T06:22:48.913Z,99.90
2023-02-22T06:25:18.609Z,99.90
2023-02-22T06:27:45.363Z,99.90
2023-02-22T06:30:13.866Z,99.90
2023-02-22T06:32:40.616Z,99.90
2023-02-22T06:35:07.703Z,99.90
2023-02-22T06:37:34.672Z,99.90
2023-02-22T06:40:05.592Z,99.90
2023-02-22T06:42:33.084Z,99.90
2023-02-22T06:44:59.945Z,99.90
2023-02-22T06:47:26.867Z,99.90
2023-02-22T06:49:55.399Z,99.90
2023-02-22T06:52:22.776Z,99.90
2023-02-22T06:54:50.008Z,99.90
2023-02-22T06:57:17.307Z,99.90
2023-02-22T06:59:44.170Z,99.90
2023-02-22T07:02:12.383Z,99.90
2023-02-22T07:04:42.896Z,99.90
2023-02-22T07:09:37.528Z,99.90
2023-02-22T07:12:05.369Z,99.90
2023-02-22T07:14:32.140Z,99.90
2023-02-22T07:19:26.125Z,99.90
2023-02-22T07:21:59.187Z,99.90
2023-02-22T07:24:28.385Z,99.90
2023-02-22T07:26:55.385Z,99.90
2023-02-22T07:29:22.555Z,99.90
2023-02-22T07:31:49.733Z,99.90
2023-02-22T07:34:16.472Z,99.90
2023-02-22T07:36:43.271Z,99.90
2023-02-22T07:39:11.153Z,99.90
2023-02-22T07:41:38.043Z,99.90
2023-02-22T07:44:05.031Z,99.90
2023-02-22T07:46:31.718Z,99.90
2023-02-22T07:48:58.432Z,99.90
2023-02-22T07:51:25.219Z,99.90
2023-02-22T07:53:52.028Z,99.90
2023-02-22T07:56:18.919Z,99.90
2023-02-22T07:58:45.613Z,99.90
2023-02-22T08:01:15.388Z,99.90
2023-02-22T08:03:42.598Z,99.90
2023-02-22T08:06:09.389Z,99.90
2023-02-22T08:08:36.184Z,99.90
2023-02-22T08:11:04.202Z,99.90
2023-02-22T08:13:31.066Z,99.90
2023-02-22T08:15:57.910Z,99.90
2023-02-22T08:18:25.836Z,99.90
2023-02-22T08:20:53.531Z,99.90
2023-02-22T08:23:22.588Z,99.90
2023-02-22T08:25:49.391Z,99.90
2023-02-22T08:28:19.858Z,99.90
2023-02-22T08:30:46.613Z,99.90
2023-02-22T08:33:16.755Z,99.90
2023-02-22T08:35:43.896Z,99.90
2023-02-22T08:38:32.097Z,99.90
2023-02-22T08:40:58.888Z,99.90
2023-02-22T08:43:25.668Z,99.90
2023-02-22T08:45:52.681Z,99.90
2023-02-22T08:48:20.638Z,99.90
2023-02-22T08:50:47.559Z,99.90
2023-02-22T08:53:16.411Z,99.90
2023-02-22T08:55:43.491Z,99.90
2023-02-22T08:58:10.649Z,99.90
2023-02-22T09:00:39.246Z,99.90
2023-02-22T09:03:13.091Z,99.90
2023-02-22T09:05:40.423Z,99.90
2023-02-22T09:08:07.244Z,99.90
2023-02-22T09:10:35.285Z,99.90
2023-02-22T09:13:03.988Z,99.90
2023-02-22T09:15:31.720Z,99.90
2023-02-22T09:17:58.860Z,99.90
2023-02-22T09:20:26.012Z,99.90
2023-02-22T09:22:53.393Z,99.90
2023-02-22T09:25:20.822Z,99.90
2023-02-22T09:27:52.158Z,99.90
2023-02-22T09:30:27.014Z,99.90
2023-02-22T09:32:59.766Z,99.90
2023-02-22T09:35:29.919Z,99.90
2023-02-22T09:37:58.304Z,99.90
2023-02-22T09:40:29.927Z,99.90
2023-02-22T09:43:25.951Z,99.90
2023-02-22T09:46:13.716Z,99.90
2023-02-22T09:49:13.942Z,99.90
2023-02-22T09:51:45.560Z,99.90
2023-02-22T09:54:24.378Z,99.90
2023-02-22T09:56:55.426Z,99.90
2023-02-22T09:59:28.522Z,99.90
2023-02-22T10:02:02.218Z,99.90
2023-02-22T10:04:41.324Z,99.90
2023-02-22T10:07:34.445Z,99.90
2023-02-22T10:10:06.401Z,99.90
2023-02-22T10:12:47.460Z,99.90
2023-02-22T10:15:45.022Z,99.90
2023-02-22T10:18:39.516Z,99.90
2023-02-22T10:21:27.773Z,99.50
2023-02-22T10:24:16.314Z,99.60
2023-02-22T10:26:44.613Z,98.50
2023-02-22T10:29:36.507Z,98.20
2023-02-22T10:32:12.256Z,97.50
2023-02-22T10:34:45.981Z,96.60
2023-02-22T10:37:34.320Z,96.00
2023-02-22T10:40:13.485Z,95.70
2023-02-22T10:42:40.268Z,95.70
2023-02-22T10:45:22.461Z,95.90
2023-02-22T10:47:50.342Z,94.30
2023-02-22T10:50:17.996Z,95.10
2023-02-22T10:52:44.710Z,95.40
2023-02-22T10:55:15.950Z,94.90
2023-02-22T10:57:46.190Z,94.70
2023-02-22T11:00:19.730Z,94.90
2023-02-22T11:03:02.720Z,95.00
2023-02-22T11:05:40.297Z,95.40
2023-02-22T11:08:22.388Z,95.50
2023-02-22T11:10:51.506Z,95.30
2023-02-22T11:13:26.012Z,95.40
2023-02-22T11:16:00.189Z,95.20
2023-02-22T11:18:29.001Z,94.70
2023-02-22T11:21:10.148Z,94.70
2023-02-22T11:23:39.699Z,95.20
2023-02-22T11:26:17.476Z,94.70
2023-02-22T11:28:50.285Z,94.80
2023-02-22T11:31:21.120Z,94.40
2023-02-22T11:36:40.916Z,94.70
2023-02-22T11:39:35.457Z,94.80
2023-02-22T11:42:25.032Z,94.90
2023-02-22T11:45:12.812Z,95.00
2023-02-22T11:47:55.618Z,94.10
2023-02-22T11:50:33.327Z,93.20
2023-02-22T11:53:15.503Z,93.70
2023-02-22T11:56:04.130Z,93.20
2023-02-22T11:59:00.503Z,93.10
2023-02-22T12:01:39.688Z,93.10
2023-02-22T12:04:27.720Z,93.30
2023-02-22T12:07:03.240Z,92.80
2023-02-22T12:10:00.727Z,93.10
2023-02-22T12:15:18.039Z,92.30
2023-02-22T12:18:00.291Z,92.10
2023-02-22T12:20:51.121Z,91.70
2023-02-22T12:23:44.754Z,91.80
2023-02-22T12:26:25.544Z,92.00
2023-02-22T12:28:59.385Z,92.20
2023-02-22T12:31:29.325Z,92.30
2023-02-22T12:34:27.257Z,91.60
2023-02-22T12:37:16.952Z,91.70
2023-02-22T12:40:13.639Z,92.00
2023-02-22T12:43:01.868Z,91.80
2023-02-22T12:45:59.132Z,91.30
2023-02-22T12:49:03.376Z,91.40
2023-02-22T12:51:45.388Z,91.70
2023-02-22T12:54:25.416Z,91.30
2023-02-22T12:56:55.135Z,91.70
2023-02-22T12:59:36.333Z,91.30
2023-02-22T13:02:19.615Z,91.50
2023-02-22T13:04:46.599Z,90.80
2023-02-22T13:07:38.159Z,90.70
2023-02-22T13:10:49.856Z,90.40
2023-02-22T13:13:37.695Z,89.60
2023-02-22T13:16:22.253Z,89.40
2023-02-22T13:18:52.049Z,89.20
2023-02-22T13:21:27.983Z,89.60
2023-02-22T13:24:14.725Z,90.00
2023-02-22T13:26:47.144Z,89.60
2023-02-22T13:29:19.759Z,90.30
2023-02-22T13:32:05.069Z,90.20
2023-02-22T13:34:37.528Z,90.00
2023-02-22T13:37:50.573Z,90.30
2023-02-22T13:40:42.466Z,90.60
2023-02-22T13:43:27.803Z,90.50
2023-02-22T13:46:17.986Z,90.30
2023-02-22T13:49:03.727Z,90.60
2023-02-22T13:51:38.607Z,90.00
2023-02-22T13:54:22.226Z,90.80
2023-02-22T13:56:51.360Z,91.00
2023-02-22T13:59:36.301Z,90.30
2023-02-22T14:02:07.845Z,91.00
2023-02-22T14:04:38.272Z,90.60
2023-02-22T14:07:24.972Z,90.60
2023-02-22T14:09:53.636Z,90.90
2023-02-22T14:12:29.874Z,90.50
2023-02-22T14:15:28.250Z,90.70
2023-02-22T14:18:01.936Z,91.10
2023-02-22T14:20:37.069Z,91.30
2023-02-22T14:23:28.840Z,90.90
2023-02-22T14:25:57.100Z,90.80
2023-02-22T14:28:36.972Z,91.60
2023-02-22T14:31:29.422Z,91.90
2023-02-22T14:34:40.161Z,92.80
2023-02-22T14:37:13.066Z,92.20
2023-02-22T14:39:52.252Z,92.30
2023-02-22T14:42:28.239Z,92.50
2023-02-22T14:47:30.386Z,94.00
2023-02-22T14:50:05.431Z,94.00
2023-02-22T14:52:37.268Z,94.50
2023-02-22T14:55:45.074Z,94.20
2023-02-22T14:58:28.350Z,94.30
2023-02-22T15:00:56.891Z,94.40
2023-02-22T15:03:37.772Z,94.60
2023-02-22T15:06:15.729Z,94.90
2023-02-22T15:08:48.552Z,94.40
2023-02-22T15:11:32.575Z,95.00
2023-02-22T15:14:01.617Z,95.30
2023-02-22T15:16:32.374Z,95.10
2023-02-22T15:19:04.202Z,95.30
2023-02-22T15:21:34.008Z,95.80
2023-02-22T15:24:04.160Z,95.80
2023-02-22T15:26:39.698Z,95.80
2023-02-22T15:29:39.894Z,96.00
2023-02-22T15:32:30.954Z,96.20
2023-02-22T15:35:29.019Z,96.10
2023-02-22T15:38:06.174Z,96.30
2023-02-22T15:40:33.693Z,96.60
2023-02-22T15:43:02.841Z,96.60
2023-02-22T15:45:32.400Z,96.80
2023-02-22T15:47:59.279Z,97.10
2023-02-22T15:50:33.329Z,97.30
2023-02-22T15:53:18.188Z,97.60
2023-02-22T15:55:49.896Z,97.70
2023-02-22T15:58:16.936Z,98.20
2023-02-22T16:00:46.894Z,98.30
2023-02-22T16:03:23.122Z,98.70
2023-02-22T16:05:55.589Z,99.10
2023-02-22T16:08:45.777Z,99.10
2023-02-22T16:11:29.856Z,99.60
2023-02-22T16:14:04.800Z,99.90
2023-02-22T16:16:43.310Z,99.90
2023-02-22T16:19:28.767Z,99.90
2023-02-22T16:22:06.344Z,99.90
2023-02-22T16:24:35.541Z,99.90
2023-02-22T16:27:24.058Z,99.90
2023-02-22T16:30:25.647Z,99.90
2023-02-22T16:32:57.110Z,99.90
2023-02-22T16:35:28.897Z,99.90
2023-02-22T16:38:04.983Z,99.90
2023-02-22T16:40:36.199Z,99.90
2023-02-22T16:43:07.241Z,99.90
2023-02-22T16:45:34.387Z,99.90
2023-02-22T16:48:04.924Z,99.90
2023-02-22T16:50:31.888Z,99.90
2023-02-22T16:53:00.620Z,99.90
2023-02-22T16:55:27.533Z,99.90
2023-02-22T16:57:56.895Z,99.90
2023-02-22T17:00:31.361Z,99.90
2023-02-22T17:03:03.993Z,99.90
2023-02-22T17:05:31.958Z,99.90
2023-02-22T17:07:58.712Z,99.90
2023-02-22T17:12:53.705Z,99.90
2023-02-22T17:15:24.847Z,99.90
2023-02-22T17:17:52.612Z,99.90
2023-02-22T17:20:31.702Z,99.90
2023-02-22T17:23:04.374Z,99.90
2023-02-22T17:25:33.551Z,99.90
2023-02-22T17:28:00.369Z,99.90
2023-02-22T17:30:28.057Z,99.90
2023-02-22T17:33:03.397Z,99.90
2023-02-22T17:35:35.087Z,99.90
2023-02-22T17:38:06.140Z,99.90
2023-02-22T17:40:36.863Z,99.90
2023-02-22T17:43:05.694Z,99.90
2023-02-22T17:45:32.514Z,99.90
2023-02-22T17:47:59.640Z,99.90
2023-02-22T17:50:27.114Z,99.90
2023-02-22T17:52:54.576Z,99.90
2023-02-22T17:55:22.218Z,99.90
2023-02-22T17:57:58.190Z,99.90
2023-02-22T18:00:34.240Z,99.90
2023-02-22T18:03:09.812Z,99.90
2023-02-22T18:05:42.075Z,99.90
2023-02-22T18:08:08.887Z,99.90
2023-02-22T18:10:35.693Z,99.90
2023-02-22T18:13:02.405Z,99.90
2023-02-22T18:15:34.775Z,99.90
2023-02-22T18:18:03.114Z,99.90
2023-02-22T18:20:38.159Z,99.90
2023-02-22T18:23:07.529Z,99.90
2023-02-22T18:25:36.401Z,99.90
2023-02-22T18:28:06.291Z,99.90
2023-02-22T18:30:35.868Z,99.90
2023-02-22T18:33:03.859Z,99.90
2023-02-22T18:35:31.156Z,99.90
2023-02-22T18:37:58.077Z,99.90
2023-02-22T18:40:24.771Z,99.90
2023-02-22T18:42:51.539Z,99.90
2023-02-22T18:45:19.220Z,99.90
2023-02-22T18:47:45.943Z,99.90
2023-02-22T18:50:14.056Z,99.90
2023-02-22T18:52:46.877Z,99.90
2023-02-22T18:55:15.986Z,99.90
2023-02-22T18:57:42.799Z,99.90
2023-02-22T19:00:13.364Z,99.90
2023-02-22T19:02:43.554Z,99.90
2023-02-22T19:05:11.823Z,99.90
2023-02-22T19:07:39.190Z,99.90
2023-02-22T19:10:07.317Z,99.90
2023-02-22T19:12:34.295Z,99.90
2023-02-22T19:15:01.397Z,99.90
2023-02-22T19:17:29.710Z,99.90
2023-02-22T19:19:56.502Z,99.90
2023-02-22T19:22:26.265Z,99.90
2023-02-22T19:24:54.222Z,99.90
2023-02-22T19:27:21.541Z,99.90
2023-02-22T19:29:49.440Z,99.90
2023-02-22T19:32:17.364Z,99.90
2023-02-22T19:34:44.641Z,99.90
2023-02-22T19:37:13.118Z,99.90
2023-02-22T19:39:42.234Z,99.90
2023-02-22T19:42:10.289Z,99.90
2023-02-22T19:44:37.796Z,99.90
2023-02-22T19:47:09.111Z,99.90
2023-02-22T19:49:40.998Z,99.90
2023-02-22T19:54:35.103Z,99.90
2023-02-22T19:57:02.161Z,99.90
2023-02-22T19:59:29.191Z,99.90
2023-02-22T20:01:56.839Z,99.90
2023-02-22T20:04:24.767Z,99.90
2023-02-22T20:06:57.524Z,99.90
2023-02-22T20:09:40.223Z,99.90
2023-02-22T20:12:07.850Z,99.90
2023-02-22T20:14:34.967Z,99.90
2023-02-22T20:17:01.981Z,99.90
2023-02-22T20:19:29.012Z,99.90
2023-02-22T20:21:56.690Z,99.90
2023-02-22T20:24:24.086Z,99.90
2023-02-22T20:26:55.580Z,99.90
2023-02-22T20:29:29.420Z,99.90
2023-02-22T20:32:00.550Z,99.90
2023-02-22T20:34:31.268Z,99.90
2023-02-22T20:36:59.184Z,99.90
2023-02-22T20:39:26.103Z,99.90
2023-02-22T20:44:21.696Z,99.90
2023-02-22T20:46:48.847Z,99.90
2023-02-22T20:49:18.791Z,99.90
2023-02-22T20:51:46.567Z,99.90
2023-02-22T20:56:43.278Z,99.90
2023-02-22T20:59:15.843Z,99.90
2023-02-22T21:01:43.064Z,99.90
2023-02-22T21:04:11.144Z,99.90
2023-02-22T21:06:39.624Z,99.90
2023-02-22T21:09:08.881Z,99.90
2023-02-22T21:11:35.998Z,99.90
2023-02-22T21:14:03.547Z,99.90
2023-02-22T21:16:35.400Z,99.90
2023-02-22T21:19:05.484Z,99.90
2023-02-22T21:21:32.807Z,99.90
2023-02-22T21:24:01.797Z,99.90
2023-02-22T21:26:32.373Z,99.90
2023-02-22T21:29:03.345Z,99.90
2023-02-22T21:31:31.582Z,99.90
2023-02-22T21:33:59.999Z,99.90
2023-02-22T21:36:28.060Z,99.90
2023-02-22T21:38:57.281Z,99.90
2023-02-22T21:41:27.644Z,99.90
2023-02-22T21:43:56.314Z,99.90
2023-02-22T21:46:24.078Z,99.90
2023-02-22T21:48:51.120Z,99.90
2023-02-22T21:51:23.529Z,99.90
2023-02-22T21:53:53.344Z,99.90
2023-02-22T21:56:27.291Z,99.90
2023-02-22T21:58:59.512Z,99.90
2023-02-22T22:01:31.936Z,99.90
2023-02-22T22:03:59.728Z,99.90
2023-02-22T22:06:28.217Z,99.90
2023-02-22T22:08:55.895Z,99.90
2023-02-22T22:11:24.028Z,99.90
2023-02-22T22:13:52.362Z,99.90
2023-02-22T22:16:20.403Z,99.90
2023-02-22T22:18:47.371Z,99.90
2023-02-22T22:21:18.276Z,99.90
2023-02-22T22:23:47.183Z,99.90
2023-02-22T22:26:16.329Z,99.90
2023-02-22T22:28:49.046Z,99.90
2023-02-22T22:31:17.363Z,99.90
2023-02-22T22:33:45.202Z,99.90
2023-02-22T22:36:14.872Z,99.90
2023-02-22T22:38:42.567Z,99.90
2023-02-22T22:41:13.223Z,99.90
2023-02-22T22:43:41.833Z,99.90
2023-02-22T22:46:09.135Z,99.90
2023-02-22T22:48:39.003Z,99.90
2023-02-22T22:51:11.688Z,99.90
2023-02-22T22:53:41.633Z,99.90
2023-02-22T22:56:17.618Z,99.90
2023-02-22T22:58:49.859Z,99.90
2023-02-22T23:01:19.449Z,99.90
2023-02-22T23:04:02.601Z,99.90
2023-02-22T23:06:32.889Z,99.90
2023-02-22T23:09:25.180Z,99.90
2023-02-22T23:11:55.760Z,99.90
2023-02-22T23:14:33.423Z,99.90
2023-02-22T23:17:03.827Z,99.90
2023-02-22T23:19:35.953Z,99.90
2023-02-22T23:22:05.396Z,99.90
2023-02-22T23:24:36.087Z,99.90
2023-02-22T23:27:07.183Z,99.90
2023-02-22T23:29:38.165Z,99.90
2023-02-22T23:32:06.031Z,99.90
2023-02-22T23:34:33.410Z,99.90
2023-02-22T23:37:00.143Z,99.90
2023-02-22T23:39:27.289Z,99.90
2023-02-22T23:42:01.080Z,99.90
2023-02-22T23:44:28.244Z,99.90
2023-02-22T23:46:55.926Z,99.90
2023-02-22T23:49:27.440Z,99.90
2023-02-22T23:51:54.516Z,99.90
2023-02-22T23:54:24.377Z,99.90
2023-02-22T23:56:57.012Z,99.90
2023-02-22T23:59:28.060Z,99.90
